sensor_id;sensor_type;location;lat;lon;timestamp;P1;durP1;ratioP1;P2;durP2;ratioP2
30048;SDS011;16879;50.852;15.602;2023-06-24T00:00:46;1.95;;;1.77;;
30048;SDS011;16879;50.852;15.602;2023-06-24T00:03:12;2.58;;;1.92;;
30048;SDS011;16879;50.852;15.602;2023-06-24T00:05:43;2.53;;;2.33;;
30048;SDS011;16879;50.852;15.602;2023-06-24T00:08:15;3.78;;;2.45;;
30048;SDS011;16879;50.852;15.602;2023-06-24T00:10:45;2.17;;;2.08;;
30048;SDS011;16879;50.852;15.602;2023-06-24T00:13:13;4.90;;;2.65;;
30048;SDS011;16879;50.852;15.602;2023-06-24T00:18:50;3.10;;;2.67;;
30048;SDS011;16879;50.852;15.602;2023-06-24T01:55:55;1.45;;;0.95;;
30048;SDS011;16879;50.852;15.602;2023-06-24T02:02:06;1.10;;;1.00;;
30048;SDS011;16879;50.852;15.602;2023-06-24T02:04:58;0.90;;;0.90;;
30048;SDS011;16879;50.852;15.602;2023-06-24T02:07:52;0.80;;;0.80;;
30048;SDS011;16879;50.852;15.602;2023-06-24T05:09:19;6.45;;;4.78;;
30048;SDS011;16879;50.852;15.602;2023-06-24T05:11:46;5.55;;;4.55;;
30048;SDS011;16879;50.852;15.602;2023-06-24T05:14:12;5.32;;;4.68;;
30048;SDS011;16879;50.852;15.602;2023-06-24T05:16:38;4.70;;;4.20;;
30048;SDS011;16879;50.852;15.602;2023-06-24T05:19:04;6.70;;;6.10;;
30048;SDS011;16879;50.852;15.602;2023-06-24T05:21:31;6.07;;;5.00;;
30048;SDS011;16879;50.852;15.602;2023-06-24T05:23:57;7.93;;;5.75;;
30048;SDS011;16879;50.852;15.602;2023-06-24T05:26:23;4.38;;;3.97;;
30048;SDS011;16879;50.852;15.602;2023-06-24T05:28:51;6.15;;;4.88;;
30048;SDS011;16879;50.852;15.602;2023-06-24T05:31:17;6.03;;;4.38;;
30048;SDS011;16879;50.852;15.602;2023-06-24T05:33:43;4.68;;;4.25;;
30048;SDS011;16879;50.852;15.602;2023-06-24T05:36:09;5.72;;;4.93;;
30048;SDS011;16879;50.852;15.602;2023-06-24T05:38:35;6.82;;;5.35;;
30048;SDS011;16879;50.852;15.602;2023-06-24T05:41:02;7.45;;;6.28;;
30048;SDS011;16879;50.852;15.602;2023-06-24T05:43:28;5.80;;;5.00;;
30048;SDS011;16879;50.852;15.602;2023-06-24T05:45:54;9.07;;;6.85;;
30048;SDS011;16879;50.852;15.602;2023-06-24T05:48:20;7.72;;;6.18;;
30048;SDS011;16879;50.852;15.602;2023-06-24T05:50:46;7.57;;;6.10;;
30048;SDS011;16879;50.852;15.602;2023-06-24T05:53:12;9.25;;;6.95;;
30048;SDS011;16879;50.852;15.602;2023-06-24T05:55:38;9.35;;;7.63;;
30048;SDS011;16879;50.852;15.602;2023-06-24T05:58:06;8.48;;;6.00;;
30048;SDS011;16879;50.852;15.602;2023-06-24T06:00:32;9.77;;;7.45;;
30048;SDS011;16879;50.852;15.602;2023-06-24T06:02:58;9.10;;;7.50;;
30048;SDS011;16879;50.852;15.602;2023-06-24T06:05:24;8.05;;;6.15;;
30048;SDS011;16879;50.852;15.602;2023-06-24T06:07:50;8.32;;;7.53;;
30048;SDS011;16879;50.852;15.602;2023-06-24T06:10:18;9.45;;;7.70;;
30048;SDS011;16879;50.852;15.602;2023-06-24T06:12:44;9.45;;;8.07;;
30048;SDS011;16879;50.852;15.602;2023-06-24T06:15:11;11.23;;;8.85;;
30048;SDS011;16879;50.852;15.602;2023-06-24T06:17:37;8.82;;;7.93;;
30048;SDS011;16879;50.852;15.602;2023-06-24T06:20:04;11.95;;;8.98;;
30048;SDS011;16879;50.852;15.602;2023-06-24T06:22:30;12.50;;;9.15;;
30048;SDS011;16879;50.852;15.602;2023-06-24T06:25:02;11.93;;;10.20;;
30048;SDS011;16879;50.852;15.602;2023-06-24T06:27:28;10.13;;;8.10;;
30048;SDS011;16879;50.852;15.602;2023-06-24T06:29:54;12.35;;;9.73;;
30048;SDS011;16879;50.852;15.602;2023-06-24T06:32:20;11.25;;;8.88;;
30048;SDS011;16879;50.852;15.602;2023-06-24T06:34:46;11.98;;;9.13;;
30048;SDS011;16879;50.852;15.602;2023-06-24T06:37:13;12.25;;;8.65;;
30048;SDS011;16879;50.852;15.602;2023-06-24T06:39:39;11.55;;;8.93;;
30048;SDS011;16879;50.852;15.602;2023-06-24T06:42:37;13.05;;;8.73;;
30048;SDS011;16879;50.852;15.602;2023-06-24T06:54:21;12.88;;;8.32;;
30048;SDS011;16879;50.852;15.602;2023-06-24T07:06:51;10.60;;;8.30;;
30048;SDS011;16879;50.852;15.602;2023-06-24T07:09:38;11.65;;;8.88;;
30048;SDS011;16879;50.852;15.602;2023-06-24T07:12:48;9.83;;;7.70;;
30048;SDS011;16879;50.852;15.602;2023-06-24T07:22:14;12.65;;;9.23;;
30048;SDS011;16879;50.852;15.602;2023-06-24T07:24:56;10.85;;;9.32;;
30048;SDS011;16879;50.852;15.602;2023-06-24T07:27:45;9.88;;;8.15;;
30048;SDS011;16879;50.852;15.602;2023-06-24T07:34:29;11.57;;;9.35;;
30048;SDS011;16879;50.852;15.602;2023-06-24T07:37:21;10.27;;;9.20;;
30048;SDS011;16879;50.852;15.602;2023-06-24T07:46:18;11.30;;;9.00;;
30048;SDS011;16879;50.852;15.602;2023-06-24T08:03:05;10.63;;;9.52;;
30048;SDS011;16879;50.852;15.602;2023-06-24T08:05:31;10.30;;;8.82;;
30048;SDS011;16879;50.852;15.602;2023-06-24T08:08:04;8.95;;;8.10;;
30048;SDS011;16879;50.852;15.602;2023-06-24T08:10:35;11.60;;;9.35;;
30048;SDS011;16879;50.852;15.602;2023-06-24T08:20:32;10.65;;;9.60;;
30048;SDS011;16879;50.852;15.602;2023-06-24T08:29:21;10.00;;;9.00;;
30048;SDS011;16879;50.852;15.602;2023-06-24T08:31:47;10.77;;;8.63;;
30048;SDS011;16879;50.852;15.602;2023-06-24T08:34:13;12.15;;;9.27;;
30048;SDS011;16879;50.852;15.602;2023-06-24T08:36:39;10.38;;;8.80;;
30048;SDS011;16879;50.852;15.602;2023-06-24T08:39:05;12.27;;;9.60;;
30048;SDS011;16879;50.852;15.602;2023-06-24T08:41:31;11.18;;;9.82;;
30048;SDS011;16879;50.852;15.602;2023-06-24T08:43:59;12.95;;;10.82;;
30048;SDS011;16879;50.852;15.602;2023-06-24T08:46:27;10.77;;;9.70;;
30048;SDS011;16879;50.852;15.602;2023-06-24T08:49:04;11.20;;;10.07;;
30048;SDS011;16879;50.852;15.602;2023-06-24T08:51:32;11.40;;;9.50;;
30048;SDS011;16879;50.852;15.602;2023-06-24T08:54:02;15.93;;;10.88;;
30048;SDS011;16879;50.852;15.602;2023-06-24T08:56:29;11.55;;;10.15;;
30048;SDS011;16879;50.852;15.602;2023-06-24T08:58:56;11.20;;;9.23;;
30048;SDS011;16879;50.852;15.602;2023-06-24T09:01:25;11.90;;;9.90;;
30048;SDS011;16879;50.852;15.602;2023-06-24T09:03:55;14.50;;;11.52;;
30048;SDS011;16879;50.852;15.602;2023-06-24T09:06:27;11.25;;;10.10;;
30048;SDS011;16879;50.852;15.602;2023-06-24T09:09:16;11.18;;;10.07;;
30048;SDS011;16879;50.852;15.602;2023-06-24T09:11:54;11.05;;;9.93;;
30048;SDS011;16879;50.852;15.602;2023-06-24T09:14:49;9.80;;;8.65;;
30048;SDS011;16879;50.852;15.602;2023-06-24T09:17:45;8.88;;;7.97;;
30048;SDS011;16879;50.852;15.602;2023-06-24T09:20:16;10.75;;;9.35;;
30048;SDS011;16879;50.852;15.602;2023-06-24T09:22:46;11.23;;;9.15;;
30048;SDS011;16879;50.852;15.602;2023-06-24T09:25:25;9.70;;;8.73;;
30048;SDS011;16879;50.852;15.602;2023-06-24T09:28:09;9.23;;;8.35;;
30048;SDS011;16879;50.852;15.602;2023-06-24T09:30:39;8.93;;;7.53;;
30048;SDS011;16879;50.852;15.602;2023-06-24T09:33:10;12.10;;;8.10;;
30048;SDS011;16879;50.852;15.602;2023-06-24T09:36:26;8.15;;;7.07;;
30048;SDS011;16879;50.852;15.602;2023-06-24T09:39:10;11.55;;;8.32;;
30048;SDS011;16879;50.852;15.602;2023-06-24T09:41:41;8.68;;;7.18;;
30048;SDS011;16879;50.852;15.602;2023-06-24T09:44:13;9.18;;;8.00;;
30048;SDS011;16879;50.852;15.602;2023-06-24T09:46:39;13.63;;;8.90;;
30048;SDS011;16879;50.852;15.602;2023-06-24T09:49:17;12.43;;;9.27;;
30048;SDS011;16879;50.852;15.602;2023-06-24T09:51:45;8.98;;;7.93;;
30048;SDS011;16879;50.852;15.602;2023-06-24T09:54:13;8.52;;;7.43;;
30048;SDS011;16879;50.852;15.602;2023-06-24T09:56:42;7.78;;;6.70;;
30048;SDS011;16879;50.852;15.602;2023-06-24T09:59:13;7.22;;;6.53;;
30048;SDS011;16879;50.852;15.602;2023-06-24T10:01:41;7.85;;;7.07;;
30048;SDS011;16879;50.852;15.602;2023-06-24T10:04:09;10.13;;;8.23;;
30048;SDS011;16879;50.852;15.602;2023-06-24T10:06:35;10.38;;;7.00;;
30048;SDS011;16879;50.852;15.602;2023-06-24T10:09:01;11.57;;;8.23;;
30048;SDS011;16879;50.852;15.602;2023-06-24T10:11:28;9.15;;;7.97;;
30048;SDS011;16879;50.852;15.602;2023-06-24T10:13:54;8.88;;;7.57;;
30048;SDS011;16879;50.852;15.602;2023-06-24T10:19:06;9.32;;;8.00;;
30048;SDS011;16879;50.852;15.602;2023-06-24T10:21:58;9.75;;;8.68;;
30048;SDS011;16879;50.852;15.602;2023-06-24T10:24:38;8.35;;;7.55;;
30048;SDS011;16879;50.852;15.602;2023-06-24T10:27:15;10.48;;;7.38;;
30048;SDS011;16879;50.852;15.602;2023-06-24T10:29:47;10.65;;;8.98;;
30048;SDS011;16879;50.852;15.602;2023-06-24T10:32:14;9.00;;;7.93;;
30048;SDS011;16879;50.852;15.602;2023-06-24T10:34:47;7.55;;;6.88;;
30048;SDS011;16879;50.852;15.602;2023-06-24T10:39:47;8.45;;;7.68;;
30048;SDS011;16879;50.852;15.602;2023-06-24T10:45:22;8.68;;;7.88;;
30048;SDS011;16879;50.852;15.602;2023-06-24T10:47:57;9.13;;;8.02;;
30048;SDS011;16879;50.852;15.602;2023-06-24T10:50:29;8.27;;;7.43;;
30048;SDS011;16879;50.852;15.602;2023-06-24T10:52:56;10.02;;;8.30;;
30048;SDS011;16879;50.852;15.602;2023-06-24T10:55:25;10.07;;;7.97;;
30048;SDS011;16879;50.852;15.602;2023-06-24T10:57:51;8.45;;;6.93;;
30048;SDS011;16879;50.852;15.602;2023-06-24T11:00:18;8.95;;;8.07;;
30048;SDS011;16879;50.852;15.602;2023-06-24T11:02:48;8.95;;;8.05;;
30048;SDS011;16879;50.852;15.602;2023-06-24T11:05:14;9.60;;;7.35;;
30048;SDS011;16879;50.852;15.602;2023-06-24T11:07:42;9.73;;;8.77;;
30048;SDS011;16879;50.852;15.602;2023-06-24T11:10:21;12.23;;;9.27;;
30048;SDS011;16879;50.852;15.602;2023-06-24T11:13:21;9.48;;;8.57;;
30048;SDS011;16879;50.852;15.602;2023-06-24T11:15:54;12.07;;;8.35;;
30048;SDS011;16879;50.852;15.602;2023-06-24T11:18:40;9.75;;;8.80;;
30048;SDS011;16879;50.852;15.602;2023-06-24T11:21:08;10.55;;;8.15;;
30048;SDS011;16879;50.852;15.602;2023-06-24T11:23:34;11.95;;;10.80;;
30048;SDS011;16879;50.852;15.602;2023-06-24T11:26:02;12.65;;;11.23;;
30048;SDS011;16879;50.852;15.602;2023-06-24T11:28:31;13.18;;;11.82;;
30048;SDS011;16879;50.852;15.602;2023-06-24T11:31:05;17.98;;;13.23;;
30048;SDS011;16879;50.852;15.602;2023-06-24T11:33:31;12.18;;;10.75;;
30048;SDS011;16879;50.852;15.602;2023-06-24T11:35:57;14.27;;;12.88;;
30048;SDS011;16879;50.852;15.602;2023-06-24T11:38:24;13.63;;;12.30;;
30048;SDS011;16879;50.852;15.602;2023-06-24T11:40:58;14.20;;;12.98;;
30048;SDS011;16879;50.852;15.602;2023-06-24T11:43:25;12.63;;;11.52;;
30048;SDS011;16879;50.852;15.602;2023-06-24T11:45:51;14.10;;;12.70;;
30048;SDS011;16879;50.852;15.602;2023-06-24T11:48:19;13.07;;;11.60;;
30048;SDS011;16879;50.852;15.602;2023-06-24T11:50:52;13.18;;;11.95;;
30048;SDS011;16879;50.852;15.602;2023-06-24T11:53:29;13.10;;;11.77;;
30048;SDS011;16879;50.852;15.602;2023-06-24T11:55:58;13.05;;;11.80;;
30048;SDS011;16879;50.852;15.602;2023-06-24T11:58:25;14.27;;;12.95;;
30048;SDS011;16879;50.852;15.602;2023-06-24T12:00:52;17.58;;;12.82;;
30048;SDS011;16879;50.852;15.602;2023-06-24T12:03:22;11.10;;;10.10;;
30048;SDS011;16879;50.852;15.602;2023-06-24T12:05:50;10.60;;;9.52;;
30048;SDS011;16879;50.852;15.602;2023-06-24T12:08:17;10.98;;;9.88;;
30048;SDS011;16879;50.852;15.602;2023-06-24T12:10:44;11.18;;;10.07;;
30048;SDS011;16879;50.852;15.602;2023-06-24T12:13:10;11.68;;;9.98;;
30048;SDS011;16879;50.852;15.602;2023-06-24T12:15:37;10.65;;;9.75;;
30048;SDS011;16879;50.852;15.602;2023-06-24T12:18:03;10.95;;;9.90;;
30048;SDS011;16879;50.852;15.602;2023-06-24T12:20:30;11.23;;;10.18;;
30048;SDS011;16879;50.852;15.602;2023-06-24T12:29:26;13.90;;;12.60;;
30048;SDS011;16879;50.852;15.602;2023-06-24T12:31:56;14.02;;;12.82;;
30048;SDS011;16879;50.852;15.602;2023-06-24T12:34:22;14.27;;;12.88;;
30048;SDS011;16879;50.852;15.602;2023-06-24T12:36:49;13.35;;;12.15;;
30048;SDS011;16879;50.852;15.602;2023-06-24T12:39:15;14.93;;;13.63;;
30048;SDS011;16879;50.852;15.602;2023-06-24T12:41:42;13.65;;;12.45;;
30048;SDS011;16879;50.852;15.602;2023-06-24T12:44:08;15.88;;;13.95;;
30048;SDS011;16879;50.852;15.602;2023-06-24T12:46:34;14.35;;;12.43;;
30048;SDS011;16879;50.852;15.602;2023-06-24T12:49:01;14.45;;;12.85;;
30048;SDS011;16879;50.852;15.602;2023-06-24T12:51:28;14.45;;;11.85;;
30048;SDS011;16879;50.852;15.602;2023-06-24T12:53:54;15.93;;;11.38;;
30048;SDS011;16879;50.852;15.602;2023-06-24T12:56:20;12.35;;;11.23;;
30048;SDS011;16879;50.852;15.602;2023-06-24T12:58:47;14.32;;;11.98;;
30048;SDS011;16879;50.852;15.602;2023-06-24T13:01:13;12.52;;;11.23;;
30048;SDS011;16879;50.852;15.602;2023-06-24T13:03:39;12.23;;;11.02;;
30048;SDS011;16879;50.852;15.602;2023-06-24T13:06:06;11.57;;;10.05;;
30048;SDS011;16879;50.852;15.602;2023-06-24T13:08:32;11.57;;;10.48;;
30048;SDS011;16879;50.852;15.602;2023-06-24T13:10:59;12.05;;;10.88;;
30048;SDS011;16879;50.852;15.602;2023-06-24T13:13:25;11.88;;;10.55;;
30048;SDS011;16879;50.852;15.602;2023-06-24T13:15:52;12.80;;;11.20;;
30048;SDS011;16879;50.852;15.602;2023-06-24T13:18:19;12.65;;;11.35;;
30048;SDS011;16879;50.852;15.602;2023-06-24T13:20:48;12.45;;;10.00;;
30048;SDS011;16879;50.852;15.602;2023-06-24T13:23:18;11.60;;;10.40;;
30048;SDS011;16879;50.852;15.602;2023-06-24T13:25:45;11.80;;;10.68;;
30048;SDS011;16879;50.852;15.602;2023-06-24T13:28:12;13.73;;;10.77;;
30048;SDS011;16879;50.852;15.602;2023-06-24T13:30:38;11.45;;;10.18;;
30048;SDS011;16879;50.852;15.602;2023-06-24T13:33:05;12.93;;;10.50;;
30048;SDS011;16879;50.852;15.602;2023-06-24T13:35:32;10.07;;;9.18;;
30048;SDS011;16879;50.852;15.602;2023-06-24T13:38:00;10.98;;;9.73;;
30048;SDS011;16879;50.852;15.602;2023-06-24T13:40:30;11.75;;;10.70;;
30048;SDS011;16879;50.852;15.602;2023-06-24T13:42:59;13.48;;;10.50;;
30048;SDS011;16879;50.852;15.602;2023-06-24T13:45:26;12.63;;;10.80;;
30048;SDS011;16879;50.852;15.602;2023-06-24T13:47:52;14.52;;;10.30;;
30048;SDS011;16879;50.852;15.602;2023-06-24T13:50:19;12.63;;;11.15;;
30048;SDS011;16879;50.852;15.602;2023-06-24T13:52:46;10.63;;;9.68;;
30048;SDS011;16879;50.852;15.602;2023-06-24T13:55:12;13.85;;;10.77;;
30048;SDS011;16879;50.852;15.602;2023-06-24T13:57:38;11.68;;;9.38;;
30048;SDS011;16879;50.852;15.602;2023-06-24T14:00:04;10.75;;;9.68;;
30048;SDS011;16879;50.852;15.602;2023-06-24T14:02:31;12.00;;;9.93;;
30048;SDS011;16879;50.852;15.602;2023-06-24T14:04:59;13.35;;;10.13;;
30048;SDS011;16879;50.852;15.602;2023-06-24T14:07:25;14.13;;;10.45;;
30048;SDS011;16879;50.852;15.602;2023-06-24T14:09:51;11.63;;;10.18;;
30048;SDS011;16879;50.852;15.602;2023-06-24T14:12:18;15.95;;;10.73;;
30048;SDS011;16879;50.852;15.602;2023-06-24T14:14:44;11.45;;;10.38;;
30048;SDS011;16879;50.852;15.602;2023-06-24T14:17:11;12.38;;;9.52;;
30048;SDS011;16879;50.852;15.602;2023-06-24T14:19:38;12.65;;;10.98;;
30048;SDS011;16879;50.852;15.602;2023-06-24T14:22:05;13.57;;;9.52;;
30048;SDS011;16879;50.852;15.602;2023-06-24T14:24:31;11.15;;;9.85;;
30048;SDS011;16879;50.852;15.602;2023-06-24T14:26:57;12.07;;;10.63;;
30048;SDS011;16879;50.852;15.602;2023-06-24T14:29:25;11.90;;;10.68;;
30048;SDS011;16879;50.852;15.602;2023-06-24T14:31:51;11.65;;;10.50;;
30048;SDS011;16879;50.852;15.602;2023-06-24T14:34:17;13.65;;;10.90;;
30048;SDS011;16879;50.852;15.602;2023-06-24T14:36:44;11.60;;;10.32;;
30048;SDS011;16879;50.852;15.602;2023-06-24T14:39:13;17.05;;;10.05;;
30048;SDS011;16879;50.852;15.602;2023-06-24T14:41:40;15.95;;;12.20;;
30048;SDS011;16879;50.852;15.602;2023-06-24T14:44:06;11.63;;;10.43;;
30048;SDS011;16879;50.852;15.602;2023-06-24T14:46:32;11.20;;;10.07;;
30048;SDS011;16879;50.852;15.602;2023-06-24T14:48:58;11.52;;;10.35;;
30048;SDS011;16879;50.852;15.602;2023-06-24T14:51:24;14.50;;;11.93;;
30048;SDS011;16879;50.852;15.602;2023-06-24T14:53:51;11.80;;;10.70;;
30048;SDS011;16879;50.852;15.602;2023-06-24T14:56:17;12.25;;;11.05;;
30048;SDS011;16879;50.852;15.602;2023-06-24T14:58:43;12.10;;;10.90;;
30048;SDS011;16879;50.852;15.602;2023-06-24T15:01:09;12.13;;;10.20;;
30048;SDS011;16879;50.852;15.602;2023-06-24T15:03:35;10.25;;;9.32;;
30048;SDS011;16879;50.852;15.602;2023-06-24T15:06:02;13.15;;;10.43;;
30048;SDS011;16879;50.852;15.602;2023-06-24T15:08:28;12.98;;;11.68;;
30048;SDS011;16879;50.852;15.602;2023-06-24T15:10:56;11.98;;;10.77;;
30048;SDS011;16879;50.852;15.602;2023-06-24T15:13:22;13.30;;;10.73;;
30048;SDS011;16879;50.852;15.602;2023-06-24T15:15:49;10.85;;;9.85;;
30048;SDS011;16879;50.852;15.602;2023-06-24T15:18:17;10.93;;;9.95;;
30048;SDS011;16879;50.852;15.602;2023-06-24T15:20:43;13.70;;;10.93;;
30048;SDS011;16879;50.852;15.602;2023-06-24T15:23:09;10.63;;;9.57;;
30048;SDS011;16879;50.852;15.602;2023-06-24T15:25:35;11.32;;;10.32;;
30048;SDS011;16879;50.852;15.602;2023-06-24T15:28:01;13.07;;;9.13;;
30048;SDS011;16879;50.852;15.602;2023-06-24T15:30:27;11.55;;;9.95;;
30048;SDS011;16879;50.852;15.602;2023-06-24T15:32:56;11.02;;;9.90;;
30048;SDS011;16879;50.852;15.602;2023-06-24T15:35:24;10.55;;;9.55;;
30048;SDS011;16879;50.852;15.602;2023-06-24T15:38:12;10.77;;;9.75;;
30048;SDS011;16879;50.852;15.602;2023-06-24T15:40:59;11.63;;;10.02;;
30048;SDS011;16879;50.852;15.602;2023-06-24T15:43:25;15.35;;;10.77;;
30048;SDS011;16879;50.852;15.602;2023-06-24T15:45:54;12.13;;;10.20;;
30048;SDS011;16879;50.852;15.602;2023-06-24T15:48:20;10.50;;;9.48;;
30048;SDS011;16879;50.852;15.602;2023-06-24T15:50:46;10.82;;;9.73;;
30048;SDS011;16879;50.852;15.602;2023-06-24T15:53:15;11.07;;;9.88;;
30048;SDS011;16879;50.852;15.602;2023-06-24T15:56:02;11.35;;;9.80;;
30048;SDS011;16879;50.852;15.602;2023-06-24T15:58:30;10.38;;;9.35;;
30048;SDS011;16879;50.852;15.602;2023-06-24T16:00:59;15.15;;;9.88;;
30048;SDS011;16879;50.852;15.602;2023-06-24T16:03:27;11.93;;;10.32;;
30048;SDS011;16879;50.852;15.602;2023-06-24T16:05:56;10.55;;;8.95;;
30048;SDS011;16879;50.852;15.602;2023-06-24T16:08:23;10.98;;;9.98;;
30048;SDS011;16879;50.852;15.602;2023-06-24T16:10:55;11.07;;;10.05;;
30048;SDS011;16879;50.852;15.602;2023-06-24T16:13:24;12.60;;;9.60;;
30048;SDS011;16879;50.852;15.602;2023-06-24T16:15:50;10.70;;;9.70;;
30048;SDS011;16879;50.852;15.602;2023-06-24T16:18:17;11.63;;;9.18;;
30048;SDS011;16879;50.852;15.602;2023-06-24T16:20:43;9.98;;;8.95;;
30048;SDS011;16879;50.852;15.602;2023-06-24T16:23:10;12.68;;;9.52;;
30048;SDS011;16879;50.852;15.602;2023-06-24T16:25:38;10.65;;;9.65;;
30048;SDS011;16879;50.852;15.602;2023-06-24T16:28:04;10.68;;;9.48;;
30048;SDS011;16879;50.852;15.602;2023-06-24T16:30:30;13.25;;;10.15;;
30048;SDS011;16879;50.852;15.602;2023-06-24T16:32:58;13.70;;;9.43;;
30048;SDS011;16879;50.852;15.602;2023-06-24T16:35:24;12.60;;;10.00;;
30048;SDS011;16879;50.852;15.602;2023-06-24T16:37:51;11.43;;;8.77;;
30048;SDS011;16879;50.852;15.602;2023-06-24T16:40:30;10.35;;;9.23;;
30048;SDS011;16879;50.852;15.602;2023-06-24T16:42:58;10.35;;;9.25;;
30048;SDS011;16879;50.852;15.602;2023-06-24T16:45:25;10.20;;;8.82;;
30048;SDS011;16879;50.852;15.602;2023-06-24T16:47:51;9.93;;;8.93;;
30048;SDS011;16879;50.852;15.602;2023-06-24T16:50:17;12.40;;;10.15;;
30048;SDS011;16879;50.852;15.602;2023-06-24T16:52:43;12.32;;;11.20;;
30048;SDS011;16879;50.852;15.602;2023-06-24T16:55:10;13.55;;;10.00;;
30048;SDS011;16879;50.852;15.602;2023-06-24T16:57:37;14.82;;;10.77;;
30048;SDS011;16879;50.852;15.602;2023-06-24T17:00:03;9.93;;;9.02;;
30048;SDS011;16879;50.852;15.602;2023-06-24T17:02:39;10.35;;;9.35;;
30048;SDS011;16879;50.852;15.602;2023-06-24T17:05:06;12.02;;;10.75;;
30048;SDS011;16879;50.852;15.602;2023-06-24T17:07:32;14.93;;;12.25;;
30048;SDS011;16879;50.852;15.602;2023-06-24T17:09:58;13.50;;;11.45;;
30048;SDS011;16879;50.852;15.602;2023-06-24T17:12:24;10.60;;;9.52;;
30048;SDS011;16879;50.852;15.602;2023-06-24T17:14:51;13.70;;;9.98;;
30048;SDS011;16879;50.852;15.602;2023-06-24T17:17:20;10.00;;;8.40;;
30048;SDS011;16879;50.852;15.602;2023-06-24T17:19:50;8.70;;;7.93;;
30048;SDS011;16879;50.852;15.602;2023-06-24T17:22:16;23.75;;;19.20;;
30048;SDS011;16879;50.852;15.602;2023-06-24T17:24:42;35.47;;;32.05;;
30048;SDS011;16879;50.852;15.602;2023-06-24T17:27:08;14.38;;;12.13;;
30048;SDS011;16879;50.852;15.602;2023-06-24T17:29:36;13.77;;;11.27;;
30048;SDS011;16879;50.852;15.602;2023-06-24T17:32:02;10.52;;;9.63;;
30048;SDS011;16879;50.852;15.602;2023-06-24T17:34:34;9.50;;;8.50;;
30048;SDS011;16879;50.852;15.602;2023-06-24T17:37:03;10.05;;;9.05;;
30048;SDS011;16879;50.852;15.602;2023-06-24T17:39:30;9.18;;;8.30;;
30048;SDS011;16879;50.852;15.602;2023-06-24T17:41:57;13.15;;;11.82;;
30048;SDS011;16879;50.852;15.602;2023-06-24T17:44:24;12.45;;;11.25;;
30048;SDS011;16879;50.852;15.602;2023-06-24T17:47:02;10.73;;;9.73;;
30048;SDS011;16879;50.852;15.602;2023-06-24T17:50:13;10.00;;;8.93;;
30048;SDS011;16879;50.852;15.602;2023-06-24T17:52:52;11.25;;;8.40;;
30048;SDS011;16879;50.852;15.602;2023-06-24T17:55:27;12.07;;;7.90;;
30048;SDS011;16879;50.852;15.602;2023-06-24T17:58:21;9.30;;;8.40;;
30048;SDS011;16879;50.852;15.602;2023-06-24T18:01:29;9.82;;;8.27;;
30048;SDS011;16879;50.852;15.602;2023-06-24T18:04:38;11.82;;;7.15;;
30048;SDS011;16879;50.852;15.602;2023-06-24T18:07:33;9.35;;;8.35;;
30048;SDS011;16879;50.852;15.602;2023-06-24T18:10:46;10.85;;;7.65;;
30048;SDS011;16879;50.852;15.602;2023-06-24T18:13:15;9.05;;;7.88;;
30048;SDS011;16879;50.852;15.602;2023-06-24T18:16:21;9.95;;;8.20;;
30048;SDS011;16879;50.852;15.602;2023-06-24T18:18:58;11.05;;;9.75;;
30048;SDS011;16879;50.852;15.602;2023-06-24T18:21:24;11.30;;;9.23;;
30048;SDS011;16879;50.852;15.602;2023-06-24T18:26:56;8.90;;;7.53;;
30048;SDS011;16879;50.852;15.602;2023-06-24T18:29:36;9.75;;;8.45;;
30048;SDS011;16879;50.852;15.602;2023-06-24T18:32:21;8.95;;;8.05;;
30048;SDS011;16879;50.852;15.602;2023-06-24T18:35:22;8.52;;;7.70;;
30048;SDS011;16879;50.852;15.602;2023-06-24T18:38:21;10.48;;;8.05;;
30048;SDS011;16879;50.852;15.602;2023-06-24T18:41:33;12.07;;;9.27;;
30048;SDS011;16879;50.852;15.602;2023-06-24T18:44:23;15.88;;;11.68;;
30048;SDS011;16879;50.852;15.602;2023-06-24T18:47:10;14.90;;;9.15;;
30048;SDS011;16879;50.852;15.602;2023-06-24T18:55:53;11.25;;;10.07;;
30048;SDS011;16879;50.852;15.602;2023-06-24T18:58:31;18.80;;;13.55;;
30048;SDS011;16879;50.852;15.602;2023-06-24T19:00:57;13.60;;;10.85;;
30048;SDS011;16879;50.852;15.602;2023-06-24T19:03:23;16.92;;;14.40;;
30048;SDS011;16879;50.852;15.602;2023-06-24T19:08:50;16.08;;;12.90;;
30048;SDS011;16879;50.852;15.602;2023-06-24T19:14:56;19.48;;;14.00;;
30048;SDS011;16879;50.852;15.602;2023-06-24T19:17:22;22.08;;;14.77;;
30048;SDS011;16879;50.852;15.602;2023-06-24T19:20:46;16.38;;;13.77;;
30048;SDS011;16879;50.852;15.602;2023-06-24T19:30:36;25.70;;;17.73;;
30048;SDS011;16879;50.852;15.602;2023-06-24T19:33:25;26.15;;;18.48;;
30048;SDS011;16879;50.852;15.602;2023-06-24T19:35:53;19.50;;;14.40;;
30048;SDS011;16879;50.852;15.602;2023-06-24T19:38:21;18.15;;;15.57;;
30048;SDS011;16879;50.852;15.602;2023-06-24T19:40:48;19.20;;;15.25;;
30048;SDS011;16879;50.852;15.602;2023-06-24T19:43:15;19.35;;;14.75;;
30048;SDS011;16879;50.852;15.602;2023-06-24T19:45:43;17.92;;;14.18;;
30048;SDS011;16879;50.852;15.602;2023-06-24T19:48:16;19.60;;;14.25;;
30048;SDS011;16879;50.852;15.602;2023-06-24T19:50:45;16.45;;;12.90;;
30048;SDS011;16879;50.852;15.602;2023-06-24T19:53:11;14.48;;;11.75;;
30048;SDS011;16879;50.852;15.602;2023-06-24T19:55:37;15.18;;;11.75;;
30048;SDS011;16879;50.852;15.602;2023-06-24T19:58:05;14.35;;;11.43;;
30048;SDS011;16879;50.852;15.602;2023-06-24T20:00:32;15.43;;;11.45;;
30048;SDS011;16879;50.852;15.602;2023-06-24T20:03:00;12.57;;;11.15;;
30048;SDS011;16879;50.852;15.602;2023-06-24T20:05:31;12.55;;;10.77;;
30048;SDS011;16879;50.852;15.602;2023-06-24T20:07:58;15.48;;;10.40;;
30048;SDS011;16879;50.852;15.602;2023-06-24T20:10:24;13.25;;;11.88;;
30048;SDS011;16879;50.852;15.602;2023-06-24T20:12:51;13.05;;;11.60;;
30048;SDS011;16879;50.852;15.602;2023-06-24T20:15:18;14.27;;;10.90;;
30048;SDS011;16879;50.852;15.602;2023-06-24T20:17:44;16.40;;;13.30;;
30048;SDS011;16879;50.852;15.602;2023-06-24T20:20:10;14.57;;;12.13;;
30048;SDS011;16879;50.852;15.602;2023-06-24T20:22:39;13.50;;;11.30;;
30048;SDS011;16879;50.852;15.602;2023-06-24T20:25:05;14.93;;;11.50;;
30048;SDS011;16879;50.852;15.602;2023-06-24T20:27:31;14.40;;;11.43;;
30048;SDS011;16879;50.852;15.602;2023-06-24T20:29:58;15.23;;;11.48;;
30048;SDS011;16879;50.852;15.602;2023-06-24T20:32:25;13.32;;;10.90;;
30048;SDS011;16879;50.852;15.602;2023-06-24T20:34:51;14.73;;;10.27;;
30048;SDS011;16879;50.852;15.602;2023-06-24T20:37:18;12.18;;;10.73;;
30048;SDS011;16879;50.852;15.602;2023-06-24T20:39:56;12.40;;;10.85;;
30048;SDS011;16879;50.852;15.602;2023-06-24T20:42:31;12.32;;;10.68;;
30048;SDS011;16879;50.852;15.602;2023-06-24T20:44:58;14.02;;;11.57;;
30048;SDS011;16879;50.852;15.602;2023-06-24T20:47:24;13.43;;;10.95;;
30048;SDS011;16879;50.852;15.602;2023-06-24T20:49:50;12.15;;;10.80;;
30048;SDS011;16879;50.852;15.602;2023-06-24T20:52:16;12.93;;;11.52;;
30048;SDS011;16879;50.852;15.602;2023-06-24T20:54:42;14.80;;;12.77;;
30048;SDS011;16879;50.852;15.602;2023-06-24T20:57:08;14.20;;;11.45;;
30048;SDS011;16879;50.852;15.602;2023-06-24T20:59:34;15.60;;;12.93;;
30048;SDS011;16879;50.852;15.602;2023-06-24T21:02:15;17.33;;;12.38;;